Tiempo atmosférico en la estación meteorológica de Labastida, Araba/Álava (610 m.)



Fecha
DESCASC
Temp. máxima en grados centígrados (hora)
DESCASC
Temp. mínima en grados centígrados (hora)
DESCASC
Temp. media en grados centígrados
DESCASC
Racha de viento máxima en m/sg (hora)
DESCASC
Velocidad máxima media en intervalos de 10 minutos(hora)
DESCASC
Precipitaciones diarias en mm
DESCASC
Precipitaciones de 00:00 a 06:00 en mm
DESCASC
Precipitaciones de 06:00 a 12:00 en mm
DESCASC
Precipitaciones de 12:00 a 18:00 en mm
DESCASC
Precipitaciones de 18:00 a 24:00 en mm
DESCASC
22-04-2019 19.5 (16:10) 8.5 (07:00) 14 6.39 (16:10) 2.78 (16:50) 0 0 0 0 0
21-04-2019 14.8 (17:30) 6 (07:10) 10.4 7.5 (22:00) 4.17 (22:50) 0.4 0 0 0.4 0
20-04-2019 21.1 (15:50) 8.1 (06:50) 14.6 12.78 (21:20) 8.61 (21:10) 0 0 0 0 0
19-04-2019 17.7 (17:20) 9 (06:00) 13.4 17.22 (05:50) 7.22 (06:40) 21.4 16.6 4.8 0 0
18-04-2019 15.3 (00:00) 9.5 (00:00) 12.4 13.33 (00:10) 5.83 (00:20) 15.8 0 10 1 4.8
17-04-2019 18.7 (17:30) 10.3 (00:00) 14.5 18.89 (20:00) 8.33 (20:00) 0 0 0 0 0
16-04-2019 20.2 (16:50) 7.2 (00:00) 13.7 12.5 (22:40) 6.94 (01:20) 0.2 0.2 0 0 0
15-04-2019 22.4 (16:20) 9.2 (00:00) 15.8 17.78 (20:20) 10.83 (21:20) 3.4 0 0 3 0.4
14-04-2019 21.4 (15:00) 9.2 (00:00) 15.3 8.33 (19:10) 5 (19:20) 0 0 0 0 0
13-04-2019 21.4 (17:50) -1.4 (-00:0) 10 8.61 (22:00) 5.28 (22:00) 0 0 0 0 0
12-04-2019 14.9 (18:00) 4.8 (00:00) 9.8 9.44 (02:50) 5 (06:10) 0 0 0 0 0
11-04-2019 10.1 (14:20) 3.9 (00:00) 7 11.11 (18:00) 6.94 (18:10) 1.2 0 0.4 0.6 0.2
10-04-2019 12.5 (14:00) 3.8 (00:00) 8.1 12.78 (17:50) 7.5 (15:10) 2 0 0 1.8 0.2
09-04-2019 13.3 (15:00) 4.3 (00:00) 8.8 12.5 (20:40) 8.33 (19:40) 3.4 0 0 0.6 2.8
08-04-2019 14.7 (17:10) 6.1 (00:00) 10.4 6.67 (16:20) 3.61 (13:40) 3.6 1.4 0.4 1.8 0
07-04-2019 12.9 (17:10) 3.4 (00:00) 8.1 9.72 (21:40) 4.72 (11:30) 0.4 0 0.2 0 0.2
06-04-2019 10.8 (17:40) 4 (00:00) 7.4 13.89 (17:20) 7.5 (19:20) 6 0 0 0.2 5.8
05-04-2019 11.1 (12:30) 3.8 (00:00) 7.5 8.89 (17:20) 3.33 (12:40) 6.2 0 0 6.2 0
04-04-2019 13.9 (17:40) 0.4 (00:00) 7.1 10.28 (15:20) 4.72 (13:50) 0 0 0 0 0
03-04-2019 9.9 (14:10) 2.8 (00:00) 6.3 15.28 (15:10) 8.61 (19:00) 0 0 0 0 0
02-04-2019 16.6 (16:10) 4.6 (00:00) 10.6 17.5 (20:20) 10.56 (20:20) 0 0 0 0 0
01-04-2019 15.5 (18:10) 6.6 (00:00) 11 11.39 (00:10) 5.28 (00:30) 1.2 1.2 0 0 0
31-03-2019 17.7 (16:20) 3.9 (00:00) 10.8 11.11 (23:20) 5 (13:20) 0 0 0 0 0
30-03-2019 18.8 (16:00) 4.5 (00:00) 11.6 10.83 (03:20) 5 (03:40) 0 0 0 0 0
29-03-2019 18.9 (16:10) 0.7 (00:00) 9.8 13.06 (22:20) 5.83 (20:50) 0 0 0 0 0
28-03-2019 16.9 (15:20) 3.1 (00:00) 10 12.5 (20:00) 6.67 (20:30) 0 0 0 0 0
27-03-2019 15.7 (15:10) 0.9 (00:00) 8.3 13.61 (18:50) 6.67 (18:50) 0 0 0 0 0
26-03-2019 15.6 (15:00) 1.7 (00:00) 8.7 15.56 (19:20) 9.17 (19:10) 0 0 0 0 0
25-03-2019 13 (16:00) 5.1 (00:00) 9 16.39 (20:50) 8.89 (20:40) 0 0 0 0 0

Gráficas

Temp. máximas Temp. mínimas Temp. medias Precipitaciones Rachas de viento máximas Velocidades máximas media en intervalos de 10 minutos

Datos horarios

Fecha y hora oficial Temperatura (ºC) Velocidad del viento (km/h) Dirección del viento Racha (km/h) Dirección de racha Precipitación (mm) Presión (hPa) Tendencia (hPa) Humedad (%)
2019-04-23 23:00:00 7.6 12 Norte 28 Norte 0 -- -- 72
2019-04-23 22:00:00 6.8 9 Norte 45 Oeste 0 -- -- 79
2019-04-23 21:00:00 8.5 0 Calma 13 Oeste 0 -- -- 79
2019-04-23 20:00:00 10.9 4 Nordeste 16 Norte 0 -- -- 63
2019-04-23 19:00:00 9.5 9 Norte 18 Norte 0 -- -- 73
2019-04-23 18:00:00 9.6 7 Norte 28 Noroeste 0 -- -- 74
2019-04-23 17:00:00 10 9 Oeste 21 Noroeste 0 -- -- 77
2019-04-23 16:00:00 9.1 10 Norte 26 Noroeste 0.6 -- -- 82
2019-04-23 15:00:00 9.2 14 Norte 35 Noroeste 1 -- -- 80
2019-04-23 14:00:00 10.4 13 Noroeste 32 Oeste 0 -- -- 77
2019-04-23 13:00:00 11 10 Noroeste 20 Noroeste 0 -- -- 79
2019-04-23 12:00:00 11.6 7 Norte 14 Noroeste 0 -- -- 83
2019-04-23 11:00:00 13.3 7 Sur 19 Sur 0 -- -- 74
2019-04-23 10:00:00 13.1 6 Sudeste 18 Sudeste 0 -- -- 70
2019-04-23 09:00:00 10.9 8 Sudeste 17 Sur 0 -- -- 80
2019-04-23 08:00:00 10.5 3 Oeste 17 Sur 0 -- -- 80
2019-04-23 07:00:00 10.7 4 Sur 20 Sudeste 0 -- -- 79
2019-04-23 06:00:00 11.7 7 Sudeste 21 Sudeste 0 -- -- 74
2019-04-23 05:00:00 12.5 6 Sudeste 16 Este 0 -- -- 67
2019-04-23 04:00:00 13.2 9 Sudeste 24 Sudeste 0 -- -- 64
2019-04-23 03:00:00 12.9 5 Sudeste 13 Sudeste 0 -- -- 65
2019-04-23 02:00:00 12.8 4 Este 18 Este 0 -- -- 64
2019-04-23 01:00:00 12.7 5 Sudeste 17 Sudeste 0 -- -- 65
2019-04-23 00:00:00 13 5 Este 14 Sudeste 0 -- -- 66
2019-04-22 23:00:00 13.5 5 Sudeste 18 Este 0 -- -- 64
2019-04-22 22:00:00 13.9 4 Este 12 Sudeste 0 -- -- 61
2019-04-22 21:00:00 15.3 3 Este 12 Sudeste 0 -- -- 58
2019-04-22 20:00:00 16.1 4 Sudeste 15 Este 0 -- -- 56
2019-04-22 19:00:00 16.7 8 Sudeste 20 Sur 0 -- -- 53
2019-04-22 18:00:00 17.9 9 Sudeste 18 Sudeste 0 -- -- 50
2019-04-22 17:00:00 17.9 8 Sudeste 23 Sur 0 -- -- 50
2019-04-22 16:00:00 19 6 Sur 15 Sur 0 -- -- 47
2019-04-22 15:00:00 17.6 3 Oeste 19 Sudoeste 0 -- -- 51
2019-04-22 14:00:00 17.9 7 Sudoeste 17 Oeste 0 -- -- 49
2019-04-22 13:00:00 16.7 8 Oeste 17 Oeste 0 -- -- 54
2019-04-22 12:00:00 15.2 8 Oeste 13 Noroeste 0 -- -- 59
2019-04-22 11:00:00 13.2 6 Oeste 13 Sudoeste 0 -- -- 71
2019-04-22 10:00:00 11.8 5 Oeste 8 Oeste 0 -- -- 77
2019-04-22 09:00:00 9.8 2 Noroeste 5 Noroeste 0 -- -- 88
2019-04-22 08:00:00 8.9 0 Calma 3 Sudeste 0 -- -- 88
2019-04-22 07:00:00 8.5 0 Calma 4 Nordeste 0 -- -- 88
2019-04-22 06:00:00 8.9 2 Este 6 Nordeste 0 -- -- 86
2019-04-22 05:00:00 9.3 0 Calma 6 Norte 0 -- -- 85
2019-04-22 04:00:00 9.5 6 Norte 9 Norte 0 -- -- 85
2019-04-22 03:00:00 9.6 0 Calma 3 Norte 0 -- -- 85
2019-04-22 02:00:00 9.8 0 Calma 6 Nordeste 0 -- -- 81
2019-04-22 01:00:00 10 5 Nordeste 8 Nordeste 0 -- -- 82
2019-04-22 00:00:00 10.4 3 Nordeste 19 Nordeste 0 -- -- 80
2019-04-21 23:00:00 11.3 13 Nordeste 26 Nordeste 0 -- -- 72
2019-04-21 22:00:00 11.2 14 Nordeste 27 Nordeste 0 -- -- 74
2019-04-21 21:00:00 11.1 3 Norte 6 Nordeste 0 -- -- 78
2019-04-21 20:00:00 12.5 2 Sur 11 Sudeste 0 -- -- 71
2019-04-21 19:00:00 13.3 2 Sur 21 Sudeste 0 -- -- 61
2019-04-21 18:00:00 13.9 11 Sudeste 24 Sur 0 -- -- 59
2019-04-21 17:00:00 13.6 4 Este 9 Nordeste 0.2 -- -- 63
2019-04-21 16:00:00 12.5 2 Nordeste 9 Sudoeste 0.2 -- -- 71
2019-04-21 15:00:00 12.6 3 Sur 12 Sudoeste 0 -- -- 71
2019-04-21 14:00:00 13.5 4 Sudoeste 13 Oeste 0 -- -- 69
2019-04-21 13:00:00 11.6 5 Oeste 11 Oeste 0 -- -- 71
2019-04-21 12:00:00 10.7 4 Oeste 15 Sudoeste 0 -- -- 72
2019-04-21 11:00:00 11.1 7 Oeste 12 Oeste 0 -- -- 73
2019-04-21 10:00:00 10.1 6 Noroeste 11 Noroeste 0 -- -- 77
2019-04-21 09:00:00 8.2 4 Nordeste 6 Norte 0 -- -- 85
2019-04-21 08:00:00 6.2 0 Calma 10 Nordeste 0 -- -- 90
2019-04-21 07:00:00 6.2 5 Norte 10 Norte 0 -- -- 88
2019-04-21 06:00:00 6.5 6 Nordeste 9 Nordeste 0 -- -- 88
2019-04-21 05:00:00 7.3 6 Nordeste 8 Norte 0 -- -- 85
2019-04-21 04:00:00 9.3 4 Oeste 20 Nordeste 0 -- -- 77
2019-04-21 03:00:00 8.3 3 Nordeste 9 Nordeste 0 -- -- 84
2019-04-21 02:00:00 9.2 0 Calma 9 Nordeste 0 -- -- 79
2019-04-21 01:00:00 11.3 5 Sur 16 Nordeste 0 -- -- 70
2019-04-21 00:00:00 12.2 10 Nordeste 32 Nordeste 0 -- -- 76
2019-04-20 23:00:00 13.4 23 Nordeste 36 Este 0 -- -- 69
2019-04-20 22:00:00 13.9 24 Nordeste 46 Nordeste 0 -- -- 65
2019-04-20 21:00:00 14.7 29 Nordeste 46 Nordeste 0 -- -- 60
2019-04-20 20:00:00 16.3 28 Nordeste 40 Nordeste 0 -- -- 54
2019-04-20 19:00:00 17.5 21 Nordeste 33 Nordeste 0 -- -- 55
2019-04-20 18:00:00 19.9 5 Sudeste 13 Sur 0 -- -- 51
2019-04-20 17:00:00 18.8 6 Sudeste 15 Sur 0 -- -- 53
2019-04-20 16:00:00 20.9 7 Sudeste 29 Este 0 -- -- 47
2019-04-20 15:00:00 20.3 5 Este 20 Este 0 -- -- 45
2019-04-20 14:00:00 19.7 5 Sudeste 20 Noroeste 0 -- -- 47
2019-04-20 13:00:00 18.1 13 Norte 26 Norte 0 -- -- 52
2019-04-20 12:00:00 17.1 7 Sudoeste 24 Sudeste 0 -- -- 63
2019-04-20 11:00:00 16.3 6 Oeste 10 Oeste 0 -- -- 60
2019-04-20 10:00:00 14.3 2 Sur 5 Sudoeste 0 -- -- 68
2019-04-20 09:00:00 9.9 3 Sur 7 Norte 0 -- -- 81
2019-04-20 08:00:00 8.3 5 Nordeste 8 Nordeste 0 -- -- 75
2019-04-20 07:00:00 8.4 3 Nordeste 8 Norte 0 -- -- 76
2019-04-20 06:00:00 8.2 4 Nordeste 8 Nordeste 0 -- -- 78
2019-04-20 05:00:00 8.6 2 Nordeste 5 Sudeste 0 -- -- 80
2019-04-20 04:00:00 9.6 3 Norte 5 Nordeste 0 -- -- 75
2019-04-20 03:00:00 11.1 4 Sudeste 12 Sudeste 0 -- -- 71
2019-04-20 02:00:00 13.9 6 Este 16 Este 0 -- -- 56
2019-04-20 01:00:00 14.5 9 Este 24 Este 0 -- -- 55
2019-04-20 00:00:00 14.5 8 Este 15 Este 0 -- -- 56
2019-04-19 23:00:00 14.7 7 Este 16 Sudeste 0 -- -- 54
2019-04-19 22:00:00 14.7 6 Nordeste 13 Sudeste 0 -- -- 56
2019-04-19 21:00:00 14.3 2 Norte 22 Sudeste 0 -- -- 66
2019-04-19 20:00:00 16.3 7 Sudeste 27 Sudeste 0 -- -- 60
2019-04-19 19:00:00 16.7 13 Sudeste 30 Sudeste 0 -- -- 61
2019-04-19 18:00:00 17.4 15 Sur 30 Sur 0 -- -- 59
2019-04-19 17:00:00 17.1 13 Sudeste 38 Sudeste 0 -- -- 59
2019-04-19 16:00:00 16 15 Sudeste 38 Este 0 -- -- 59
2019-04-19 15:00:00 16 13 Sudeste 33 Sur 0 -- -- 62
2019-04-19 14:00:00 16.4 10 Sudeste 28 Sudeste 0 -- -- 66
2019-04-19 13:00:00 15.5 14 Sudeste 33 Sur 0 -- -- 64
2019-04-19 12:00:00 13.1 10 Sudeste 27 Sudeste 0 -- -- 72
2019-04-19 11:00:00 11 10 Sudeste 38 Este 0 -- -- 77
2019-04-19 10:00:00 10.1 18 Sudeste 41 Sudeste 1.2 -- -- 82
2019-04-19 09:00:00 9.6 22 Sudeste 57 Sudeste 0.2 -- -- 86
2019-04-19 08:00:00 9.3 23 Sudeste 59 Sudeste 1.6 -- -- 88
2019-04-19 07:00:00 9.2 22 Sudeste 56 Sudeste 1.8 -- -- 89
2019-04-19 06:00:00 9 23 Sudeste 62 Este 1.2 -- -- 89
2019-04-19 05:00:00 9.4 24 Sudeste 57 Sudeste 0.6 -- -- 87
2019-04-19 04:00:00 9.2 18 Sudeste 37 Este 4 -- -- 93
2019-04-19 03:00:00 9.5 17 Sudeste 41 Sudeste 3.4 -- -- 94
2019-04-19 02:00:00 9.7 18 Sudeste 41 Sudeste 4.8 -- -- 93
2019-04-19 01:00:00 10.1 13 Sudeste 29 Este 2.6 -- -- 90
2019-04-19 00:00:00 10 3 Este 11 Sudeste 0.4 -- -- 91
2019-04-18 23:00:00 11.2 6 Sur 26 Este 0.2 -- -- 84
2019-04-18 22:00:00 10.1 3 Sur 13 Noroeste 0.2 -- -- 90
2019-04-18 21:00:00 10.1 5 Noroeste 12 Norte 0.8 -- -- 91
2019-04-18 20:00:00 10.5 3 Norte 13 Sudeste 2 -- -- 90
2019-04-18 19:00:00 11.4 8 Este 19 Sudeste 1.2 -- -- 82
2019-04-18 18:00:00 14 10 Sudeste 23 Este 0 -- -- 68
2019-04-18 17:00:00 14.2 9 Sudeste 36 Sudeste 0 -- -- 67
2019-04-18 16:00:00 14.4 16 Sudeste 39 Este 0 -- -- 65
2019-04-18 15:00:00 14.3 13 Sudeste 36 Este 0 -- -- 69
2019-04-18 14:00:00 13.6 14 Sudeste 38 Sudeste 0 -- -- 77
2019-04-18 13:00:00 11.9 9 Sudeste 31 Este 1 -- -- 83
2019-04-18 12:00:00 10.6 12 Sudeste 29 Sudeste 1.2 -- -- 89
2019-04-18 11:00:00 10 8 Sudeste 24 Sur 3 -- -- 92
2019-04-18 10:00:00 10.1 9 Sudeste 39 Sudeste 1.6 -- -- 91
2019-04-18 09:00:00 10.5 11 Sudeste 40 Sudeste 1.2 -- -- 88
2019-04-18 08:00:00 9.5 16 Sudeste 42 Sudeste 3 -- -- 91
2019-04-18 07:00:00 12.1 14 Sudeste 36 Sur 0 -- -- 74
2019-04-18 06:00:00 12.3 15 Sudeste 34 Sur 0 -- -- 75
2019-04-18 05:00:00 12.7 13 Sudeste 41 Sudeste 0 -- -- 71
2019-04-18 04:00:00 13.4 19 Sudeste 45 Este 0 -- -- 70
2019-04-18 03:00:00 12.5 18 Sudeste 44 Este 0 -- -- 72
2019-04-18 02:00:00 14.2 19 Sudeste 39 Este 0 -- -- 65
2019-04-18 01:00:00 14.7 13 Sudeste 48 Sudeste 0 -- -- 61
2019-04-18 00:00:00 15.3 18 Sudeste 49 Este 0 -- -- 55
2019-04-17 23:00:00 15.6 18 Sudeste 50 Sudeste 0 -- -- 58
2019-04-17 22:00:00 16 21 Sudeste 57 Sudeste 0 -- -- 59
2019-04-17 21:00:00 16.4 26 Sudeste 59 Sudeste 0 -- -- 59
2019-04-17 20:00:00 16.7 30 Sudeste 68 Este 0 -- -- 58
2019-04-17 19:00:00 17.9 22 Sudeste 54 Sudeste 0 -- -- 55
2019-04-17 18:00:00 18.3 25 Sudeste 56 Sudeste 0 -- -- 55
2019-04-17 17:00:00 17.1 22 Sudeste 50 Este 0 -- -- 58
2019-04-17 16:00:00 16.9 24 Sudeste 58 Sudeste 0 -- -- 59
2019-04-17 15:00:00 15.7 19 Sudeste 57 Sudeste 0 -- -- 59
2019-04-17 14:00:00 14.9 22 Sudeste 52 Sudeste 0 -- -- 62
2019-04-17 13:00:00 14.6 22 Sudeste 58 Sudeste 0 -- -- 61
2019-04-17 12:00:00 14.1 21 Sudeste 50 Este 0 -- -- 64
2019-04-17 11:00:00 12.5 20 Sudeste 48 Sudeste 0 -- -- 68
2019-04-17 10:00:00 11.2 18 Sudeste 45 Sudeste 0 -- -- 73
2019-04-17 09:00:00 10.7 18 Sudeste 56 Sudeste 0 -- -- 74
2019-04-17 08:00:00 10.3 22 Sudeste 54 Este 0 -- -- 75
2019-04-17 07:00:00 11 23 Sudeste 54 Este 0 -- -- 72
2019-04-17 06:00:00 11.8 23 Sudeste 55 Este 0 -- -- 68
2019-04-17 05:00:00 12.4 20 Sudeste 48 Sudeste 0 -- -- 65
2019-04-17 04:00:00 13.2 20 Sudeste 50 Sudeste 0 -- -- 61
2019-04-17 03:00:00 13.6 22 Sudeste 44 Sudeste 0 -- -- 62
2019-04-17 02:00:00 14.5 22 Sudeste 53 Sudeste 0 -- -- 56
2019-04-17 01:00:00 14.5 21 Sudeste 46 Sudeste 0 -- -- 54
2019-04-17 00:00:00 14.9 15 Sudeste 45 Este 0 -- -- 52
2019-04-16 23:00:00 15.5 20 Sudeste 45 Sudeste 0 -- -- 51
2019-04-16 22:00:00 15.4 18 Sudeste 41 Sudeste 0 -- -- 50
2019-04-16 21:00:00 15.4 14 Sudeste 36 Sudeste 0 -- -- 54
2019-04-16 20:00:00 16.7 12 Sudeste 33 Sudeste 0 -- -- 54
2019-04-16 19:00:00 18.3 12 Sudeste 30 Sudeste 0 -- -- 49
2019-04-16 18:00:00 19.4 12 Sudeste 28 Sur 0 -- -- 49
2019-04-16 17:00:00 20.1 10 Sur 25 Sur 0 -- -- 45
2019-04-16 16:00:00 19.7 9 Sur 19 Sur 0 -- -- 45
2019-04-16 15:00:00 18.5 8 Sur 18 Sur 0 -- -- 48
2019-04-16 14:00:00 17.1 6 Sudoeste 19 Sur 0 -- -- 50
2019-04-16 13:00:00 16 8 Sudoeste 15 Sudeste 0 -- -- 55
2019-04-16 12:00:00 14.5 5 Sudoeste 15 Sudoeste 0 -- -- 60
2019-04-16 11:00:00 13.6 4 Sur 10 Sudoeste 0 -- -- 65
2019-04-16 10:00:00 11 3 Noroeste 8 Oeste 0 -- -- 74
2019-04-16 09:00:00 8.5 3 Nordeste 8 Nordeste 0 -- -- 85
2019-04-16 08:00:00 7.8 4 Nordeste 8 Nordeste 0 -- -- 87
2019-04-16 07:00:00 7.2 5 Nordeste 9 Nordeste 0 -- -- 85
2019-04-16 06:00:00 8.6 0 Calma 11 Sudoeste 0 -- -- 86
2019-04-16 05:00:00 8.9 4 Oeste 9 Oeste 0 -- -- 86
2019-04-16 04:00:00 8.9 3 Noroeste 18 Oeste 0 -- -- 85
2019-04-16 03:00:00 9.5 4 Sur 33 Nordeste 0 -- -- 82
2019-04-16 02:00:00 9.7 18 Nordeste 42 Nordeste 0.2 -- -- 82
2019-04-16 01:00:00 10.3 20 Nordeste 38 Nordeste 0 -- -- 82
2019-04-16 00:00:00 10.8 19 Nordeste 31 Nordeste 0 -- -- 80
2019-04-15 23:00:00 10.8 19 Nordeste 30 Nordeste 0.2 -- -- 81
2019-04-15 22:00:00 12 11 Nordeste 56 Nordeste 0 -- -- 76
2019-04-15 21:00:00 10.9 38 Nordeste 64 Nordeste 0 -- -- 80
2019-04-15 20:00:00 12.5 28 Nordeste 56 Nordeste 0.2 -- -- 83
2019-04-15 19:00:00 14.9 7 Norte 24 Nordeste 0 -- -- 76
2019-04-15 18:00:00 14.2 14 Norte 40 Noroeste 3 -- -- 76
2019-04-15 17:00:00 19.9 9 Sudeste 43 Sudeste 0 -- -- 56
2019-04-15 16:00:00 21.6 16 Sudeste 37 Sudeste 0 -- -- 53
2019-04-15 15:00:00 19.4 14 Sudeste 39 Sudeste 0 -- -- 60
2019-04-15 14:00:00 18.3 17 Sudeste 46 Sudeste 0 -- -- 63
2019-04-15 13:00:00 18.9 16 Sudeste 38 Sudeste 0 -- -- 59
2019-04-15 12:00:00 17.5 16 Sudeste 37 Sur 0 -- -- 63
2019-04-15 11:00:00 17.4 15 Sudeste 34 Sudeste 0 -- -- 64
2019-04-15 10:00:00 14.3 3 Sur 8 Sudoeste 0 -- -- 78
2019-04-15 09:00:00 10.7 0 Calma 6 Sudoeste 0 -- -- 90
2019-04-15 08:00:00 10.2 0 Calma 10 Sudeste 0 -- -- 90
2019-04-15 07:00:00 9.2 0 Calma 9 Nordeste 0 -- -- 91
2019-04-15 06:00:00 10.3 0 Calma 6 Sur 0 -- -- 90
2019-04-15 05:00:00 9.9 0 Calma 8 Nordeste 0 -- -- 89
2019-04-15 04:00:00 10.9 2 Noroeste 8 Norte 0 -- -- 85
2019-04-15 03:00:00 11.5 2 Nordeste 11 Sur 0 -- -- 82
2019-04-15 02:00:00 11.9 3 Este 9 Nordeste 0 -- -- 84
2019-04-15 01:00:00 12.2 2 Este 9 Nordeste 0 -- -- 77
2019-04-15 00:00:00 13.2 4 Norte 10 Sur 0 -- -- 74
2019-04-14 23:00:00 15.7 5 Sudeste 14 Este 0 -- -- 64
2019-04-14 22:00:00 15.8 4 Sudoeste 17 Este 0 -- -- 64
2019-04-14 21:00:00 17.1 9 Este 16 Nordeste 0 -- -- 60
2019-04-14 20:00:00 18.3 10 Nordeste 30 Nordeste 0 -- -- 56
2019-04-14 19:00:00 20.1 11 Nordeste 26 Nordeste 0 -- -- 51
2019-04-14 18:00:00 20.9 10 Norte 25 Nordeste 0 -- -- 47
2019-04-14 17:00:00 21.3 10 Norte 20 Nordeste 0 -- -- 46
2019-04-14 16:00:00 21.2 10 Norte 25 Noroeste 0 -- -- 45
2019-04-14 15:00:00 21.4 13 Oeste 26 Noroeste 0 -- -- 44
2019-04-14 14:00:00 20.1 12 Noroeste 27 Norte 0 -- -- 44
2019-04-14 13:00:00 18.8 12 Norte 22 Norte 0 -- -- 46
2019-04-14 12:00:00 17.9 9 Norte 18 Noroeste 0 -- -- 42
2019-04-14 11:00:00 16.7 7 Noroeste 13 Noroeste 0 -- -- 45
2019-04-14 10:00:00 15.2 5 Oeste 12 Noroeste 0 -- -- 47
2019-04-14 09:00:00 11.7 4 Noroeste 9 Norte 0 -- -- 59
2019-04-14 08:00:00 9.4 2 Nordeste 5 Sur 0 -- -- 63
2019-04-14 07:00:00 11.1 3 Norte 10 Nordeste 0 -- -- 58
2019-04-14 06:00:00 9.7 3 Norte 11 Nordeste 0 -- -- 57
2019-04-14 05:00:00 10.1 4 Norte 9 Norte 0 -- -- 55
2019-04-14 04:00:00 10.1 0 Calma 5 Norte 0 -- -- 58
2019-04-14 03:00:00 10.6 2 Sudeste 9 Nordeste 0 -- -- 56
2019-04-14 02:00:00 10.7 2 Sudeste 9 Este 0 -- -- 53
2019-04-14 01:00:00 13 2 Sudeste 9 Nordeste 0 -- -- 48
2019-04-14 00:00:00 12 0 Calma 10 Nordeste 0 -- -- 51
2019-04-13 23:00:00 13.8 5 Sudeste 30 Nordeste 0 -- -- 44
2019-04-13 22:00:00 15.8 19 Nordeste 31 Nordeste 0 -- -- 37
2019-04-13 21:00:00 16.2 7 Norte 14 Noroeste 0 -- -- 37
2019-04-13 20:00:00 19 5 Noroeste 22 Oeste 0 -- -- 30
2019-04-13 19:00:00 20.7 13 Oeste 24 Oeste 0 -- -- 23
2019-04-13 18:00:00 21 6 Noroeste 17 Norte 0 -- -- 24
2019-04-13 17:00:00 20.4 8 Norte 21 Oeste 0 -- -- 21
2019-04-13 16:00:00 20.5 7 Oeste 18 Oeste 0 -- -- 18
2019-04-13 15:00:00 20 8 Oeste 17 Oeste 0 -- -- 20
2019-04-13 14:00:00 18.8 8 Oeste 18 Noroeste 0 -- -- 16
2019-04-13 13:00:00 16.7 6 Oeste 14 Oeste 0 -- -- 17
2019-04-13 12:00:00 14 6 Oeste 11 Noroeste 0 -- -- 30
2019-04-13 11:00:00 10.7 3 Sur 5 Sur 0 -- -- 58
2019-04-13 10:00:00 6.9 2 Sudoeste 4 Sudoeste 0 -- -- 68
2019-04-13 09:00:00 1.3 0 Calma 5 Norte 0 -- -- 71
2019-04-13 08:00:00 -1.4 0 Calma 4 Norte 0 -- -- 76
2019-04-13 07:00:00 -0.9 0 Calma 5 Oeste 0 -- -- 73
2019-04-13 06:00:00 -1.1 3 Nordeste 9 Nordeste 0 -- -- 74
2019-04-13 05:00:00 -0.4 4 Norte 9 Nordeste 0 -- -- 68
2019-04-13 04:00:00 0.9 2 Este 9 Nordeste 0 -- -- 66
2019-04-13 03:00:00 1 5 Norte 10 Nordeste 0 -- -- 73
2019-04-13 02:00:00 2.1 4 Norte 9 Norte 0 -- -- 62
2019-04-13 01:00:00 3.2 5 Norte 6 Nordeste 0 -- -- 66
2019-04-13 00:00:00 4.8 2 Nordeste 15 Este 0 -- -- 55
2019-04-12 23:00:00 7.9 12 Nordeste 27 Este 0 -- -- 53
2019-04-12 22:00:00 7.7 3 Norte 21 Nordeste 0 -- -- 68
2019-04-12 21:00:00 10.2 10 Nordeste 22 Nordeste 0 -- -- 61
2019-04-12 20:00:00 12.3 5 Norte 22 Norte 0 -- -- 51
2019-04-12 19:00:00 13.8 10 Norte 26 Noroeste 0 -- -- 46
2019-04-12 18:00:00 14.9 7 Noroeste 23 Norte 0 -- -- 42
2019-04-12 17:00:00 14.4 8 Nordeste 30 Noroeste 0 -- -- 45
2019-04-12 16:00:00 14.1 14 Noroeste 32 Noroeste 0 -- -- 48
2019-04-12 15:00:00 13.5 14 Noroeste 31 Noroeste 0 -- -- 49
2019-04-12 14:00:00 11.5 12 Norte 32 Noroeste 0 -- -- 55
2019-04-12 13:00:00 10.9 13 Norte 23 Nordeste 0 -- -- 61
2019-04-12 12:00:00 9.1 13 Norte 28 Norte 0 -- -- 65
2019-04-12 11:00:00 7.5 8 Oeste 17 Noroeste 0 -- -- 80
2019-04-12 10:00:00 5.8 8 Noroeste 15 Noroeste 0 -- -- 85
2019-04-12 09:00:00 5.3 6 Norte 13 Norte 0 -- -- 85
2019-04-12 08:00:00 5.2 8 Norte 21 Norte 0 -- -- 84
2019-04-12 07:00:00 6.1 12 Norte 30 Nordeste 0 -- -- 78
2019-04-12 06:00:00 6.3 15 Nordeste 30 Nordeste 0 -- -- 76
2019-04-12 05:00:00 5.5 3 Oeste 17 Oeste 0 -- -- 84
2019-04-12 04:00:00 6.5 11 Este 33 Nordeste 0 -- -- 77
2019-04-12 03:00:00 6.4 12 Nordeste 34 Nordeste 0 -- -- 78
2019-04-12 02:00:00 6.7 14 Norte 28 Norte 0 -- -- 79
2019-04-12 01:00:00 6.8 10 Norte 30 Nordeste 0 -- -- 81
2019-04-12 00:00:00 7 16 Nordeste 39 Nordeste 0 -- -- 77
2019-04-11 23:00:00 7.5 15 Norte 35 Nordeste 0 -- -- 74
2019-04-11 22:00:00 7.2 10 Norte 25 Noroeste 0 -- -- 82
2019-04-11 21:00:00 7.5 11 Nordeste 29 Nordeste 0 -- -- 82
2019-04-11 20:00:00 7.7 8 Norte 30 Nordeste 0.2 -- -- 82
2019-04-11 19:00:00 8 7 Norte 39 Nordeste 0 -- -- 82
2019-04-11 18:00:00 8.5 18 Nordeste 40 Nordeste 0 -- -- 79
2019-04-11 17:00:00 9.5 13 Norte 34 Norte 0 -- -- 74
2019-04-11 16:00:00 9.8 13 Norte 33 Norte 0 -- -- 72
2019-04-11 15:00:00 9 9 Norte 25 Noroeste 0 -- -- 75
2019-04-11 14:00:00 8.4 9 Noroeste 24 Noroeste 0.6 -- -- 82
2019-04-11 13:00:00 8.1 7 Noroeste 17 Noroeste 0 -- -- 81
2019-04-11 12:00:00 7.5 9 Noroeste 19 Nordeste 0.2 -- -- 82
2019-04-11 11:00:00 7.4 7 Noroeste 17 Noroeste 0 -- -- 79
2019-04-11 10:00:00 8.1 6 Noroeste 15 Norte 0.2 -- -- 78
2019-04-11 09:00:00 5.9 6 Noroeste 12 Noroeste 0 -- -- 85
2019-04-11 08:00:00 5.3 6 Norte 11 Norte 0 -- -- 85
2019-04-11 07:00:00 4.3 2 Noroeste 13 Oeste 0 -- -- 89
2019-04-11 06:00:00 5.5 8 Noroeste 21 Norte 0 -- -- 83
2019-04-11 05:00:00 6.1 6 Noroeste 12 Noroeste 0 -- -- 81
2019-04-11 04:00:00 5.9 6 Noroeste 12 Noroeste 0 -- -- 87
2019-04-11 03:00:00 6.1 4 Noroeste 21 Noroeste 0 -- -- 82
2019-04-11 02:00:00 6.7 12 Norte 21 Noroeste 0 -- -- 81
2019-04-11 01:00:00 6.9 13 Norte 25 Noroeste 0 -- -- 83
2019-04-11 00:00:00 6.9 8 Norte 23 Norte 0.2 -- -- 86
2019-04-10 23:00:00 7.2 12 Norte 25 Norte 0 -- -- 83
2019-04-10 22:00:00 7.8 13 Norte 26 Norte 0 -- -- 76
2019-04-10 21:00:00 7.9 12 Norte 34 Nordeste 0 -- -- 76
2019-04-10 20:00:00 8.7 18 Nordeste 35 Norte 0 -- -- 71
2019-04-10 19:00:00 9.5 16 Norte 37 Norte 0 -- -- 71
2019-04-10 18:00:00 10.1 16 Norte 46 Norte 0 -- -- 66
2019-04-10 17:00:00 9 19 Nordeste 38 Nordeste 0.4 -- -- 72
2019-04-10 16:00:00 8.1 27 Nordeste 41 Nordeste 1.4 -- -- 77
2019-04-10 15:00:00 9 26 Nordeste 37 Nordeste 0 -- -- 73
2019-04-10 14:00:00 12.5 9 Noroeste 21 Noroeste 0 -- -- 61
2019-04-10 13:00:00 10.8 13 Noroeste 23 Noroeste 0 -- -- 68
2019-04-10 12:00:00 8.3 11 Noroeste 22 Oeste 0 -- -- 76
2019-04-10 11:00:00 7.5 6 Noroeste 20 Oeste 0 -- -- 80
2019-04-10 10:00:00 6.6 3 Oeste 10 Sudoeste 0 -- -- 85
2019-04-10 09:00:00 6.1 6 Norte 13 Noroeste 0 -- -- 85
2019-04-10 08:00:00 4.3 3 Noroeste 14 Oeste 0 -- -- 91
2019-04-10 07:00:00 4.7 9 Noroeste 17 Noroeste 0 -- -- 88
2019-04-10 06:00:00 5.6 6 Norte 17 Norte 0 -- -- 83
2019-04-10 05:00:00 5.6 6 Norte 19 Norte 0 -- -- 85
2019-04-10 04:00:00 5.4 6 Nordeste 13 Nordeste 0 -- -- 90
2019-04-10 03:00:00 5.4 3 Nordeste 8 Nordeste 0 -- -- 88
2019-04-10 02:00:00 5.2 2 Nordeste 8 Nordeste 0 -- -- 89
2019-04-10 01:00:00 5.3 3 Oeste 9 Nordeste 0 -- -- 88
2019-04-10 00:00:00 4.5 7 Nordeste 14 Nordeste 0 -- -- 90
2019-04-09 23:00:00 5 6 Nordeste 24 Noroeste 0 -- -- 91
2019-04-09 22:00:00 7.7 18 Nordeste 36 Nordeste 1.2 -- -- 68
2019-04-09 21:00:00 5.5 15 Norte 45 Norte 1.4 -- -- 85
2019-04-09 20:00:00 7.2 28 Norte 45 Norte 0.2 -- -- 82
2019-04-09 19:00:00 8.8 19 Nordeste 31 Nordeste 0 -- -- 75
2019-04-09 18:00:00 11 14 Oeste 28 Oeste 0 -- -- 67
2019-04-09 17:00:00 10.3 10 Norte 30 Oeste 0.2 -- -- 73
2019-04-09 16:00:00 10.1 8 Noroeste 33 Sudoeste 0.4 -- -- 77
2019-04-09 15:00:00 13.3 11 Oeste 28 Oeste 0 -- -- 53
2019-04-09 14:00:00 12.2 14 Oeste 37 Oeste 0 -- -- 55
2019-04-09 13:00:00 11.1 15 Noroeste 35 Oeste 0 -- -- 61
2019-04-09 12:00:00 10.3 8 Noroeste 34 Noroeste 0 -- -- 65
2019-04-09 11:00:00 9.6 14 Noroeste 28 Noroeste 0 -- -- 69
2019-04-09 10:00:00 8.7 12 Norte 27 Norte 0 -- -- 73
2019-04-09 09:00:00 7.2 12 Norte 25 Norte 0 -- -- 76
2019-04-09 08:00:00 6.3 12 Norte 26 Noroeste 0 -- -- 80
2019-04-09 07:00:00 6.2 13 Noroeste 23 Noroeste 0 -- -- 78
2019-04-09 06:00:00 6.4 10 Noroeste 20 Noroeste 0 -- -- 77
2019-04-09 05:00:00 6.5 10 Norte 19 Noroeste 0 -- -- 77
2019-04-09 04:00:00 6.9 9 Norte 17 Norte 0 -- -- 75
2019-04-09 03:00:00 7.2 8 Norte 16 Norte 0 -- -- 75
2019-04-09 02:00:00 6.5 5 Norte 8 Norte 0 -- -- 84
2019-04-09 01:00:00 7.1 3 Este 8 Nordeste 0 -- -- 88
2019-04-09 00:00:00 7.8 4 Este 9 Sudeste 0 -- -- 85
2019-04-08 23:00:00 7.8 2 Este 6 Nordeste 0 -- -- 79
2019-04-08 22:00:00 9.2 2 Noroeste 19 Nordeste 0 -- -- 67
2019-04-08 21:00:00 10.6 5 Norte 17 Norte 0 -- -- 59
2019-04-08 20:00:00 12.8 6 Norte 20 Norte 0 -- -- 54
2019-04-08 19:00:00 13.7 9 Norte 21 Noroeste 0 -- -- 62
2019-04-08 18:00:00 14.2 9 Norte 19 Norte 0 -- -- 56
2019-04-08 17:00:00 14.3 7 Norte 24 Norte 0 -- -- 59
2019-04-08 16:00:00 12.8 12 Noroeste 22 Noroeste 0.2 -- -- 70
2019-04-08 15:00:00 13.1 3 Noroeste 20 Sudeste 0 -- -- 63
2019-04-08 14:00:00 12.4 9 Norte 22 Norte 0.8 -- -- 70
2019-04-08 13:00:00 9.6 3 Norte 17 Sudoeste 0.8 -- -- 88
2019-04-08 12:00:00 10.8 4 Sur 14 Sur 0 -- -- 83
2019-04-08 11:00:00 10.4 4 Sur 9 Sur 0 -- -- 84
2019-04-08 10:00:00 7.9 2 Sudoeste 7 Sudeste 0 -- -- 96
2019-04-08 09:00:00 6.9 3 Sudeste 8 Sudoeste 0.2 -- -- 96
2019-04-08 08:00:00 6.4 3 Este 9 Oeste 0 -- -- 96
2019-04-08 07:00:00 6.5 2 Sudoeste 9 Sudoeste 0.2 -- -- 94
2019-04-08 06:00:00 6.6 2 Nordeste 12 Sudoeste 0 -- -- 92
2019-04-08 05:00:00 6.8 3 Nordeste 12 Sudoeste 0.2 -- -- 90
2019-04-08 04:00:00 6.8 4 Norte 10 Nordeste 1 -- -- 89
2019-04-08 03:00:00 7 3 Norte 9 Sudeste 0 -- -- 84
2019-04-08 02:00:00 7.3 6 Este 14 Este 0 -- -- 80
2019-04-08 01:00:00 6.1 8 Nordeste 11 Nordeste 0.2 -- -- 87
2019-04-08 00:00:00 7.3 6 Norte 26 Norte 0.2 -- -- 80
2019-04-07 23:00:00 8.2 10 Norte 29 Noroeste 0 -- -- 71
2019-04-07 22:00:00 9.1 13 Noroeste 35 Oeste 0 -- -- 65
2019-04-07 21:00:00 10.1 3 Norte 13 Noroeste 0 -- -- 53
2019-04-07 20:00:00 11.5 8 Oeste 18 Sudoeste 0 -- -- 43
2019-04-07 19:00:00 12.1 7 Sudoeste 22 Oeste 0 -- -- 47
2019-04-07 18:00:00 12.1 10 Oeste 31 Noroeste 0 -- -- 46
2019-04-07 17:00:00 12.7 10 Noroeste 20 Noroeste 0 -- -- 45
2019-04-07 16:00:00 11.6 9 Norte 21 Nordeste 0 -- -- 50
2019-04-07 15:00:00 11.4 12 Norte 20 Norte 0 -- -- 54
2019-04-07 14:00:00 10.3 8 Noroeste 22 Noroeste 0 -- -- 59
2019-04-07 13:00:00 10.3 13 Oeste 29 Oeste 0 -- -- 65
2019-04-07 12:00:00 8 14 Oeste 28 Oeste 0 -- -- 73
2019-04-07 11:00:00 5.8 13 Noroeste 26 Noroeste 0 -- -- 77
2019-04-07 10:00:00 5.1 10 Noroeste 21 Noroeste 0 -- -- 80
2019-04-07 09:00:00 4.1 8 Norte 21 Noroeste 0 -- -- 84
2019-04-07 08:00:00 3.5 8 Norte 15 Noroeste 0 -- -- 87
2019-04-07 07:00:00 3.7 4 Norte 15 Noroeste 0.2 -- -- 87
2019-04-07 06:00:00 4.1 8 Norte 16 Norte 0 -- -- 84
2019-04-07 05:00:00 4.3 6 Norte 18 Norte 0 -- -- 83
2019-04-07 04:00:00 4.4 6 Norte 17 Norte 0 -- -- 85
2019-04-07 03:00:00 3.9 7 Nordeste 10 Nordeste 0 -- -- 93
2019-04-07 02:00:00 4.3 5 Noroeste 14 Norte 0 -- -- 92
2019-04-07 01:00:00 4.5 5 Norte 13 Norte 0 -- -- 90
2019-04-07 00:00:00 4.4 2 Noroeste 8 Noroeste 0.4 -- -- 90
2019-04-06 23:00:00 4.7 7 Oeste 19 Sudoeste 0.6 -- -- 86
2019-04-06 22:00:00 6 9 Norte 17 Norte 0 -- -- 78
2019-04-06 21:00:00 5.3 6 Norte 12 Noroeste 0 -- -- 86
2019-04-06 20:00:00 5.7 5 Noroeste 46 Oeste 4.8 -- -- 83
2019-04-06 19:00:00 8.9 6 Norte 27 Sudoeste 0 -- -- 65
2019-04-06 18:00:00 10.8 10 Oeste 50 Sudoeste 0 -- -- 61
2019-04-06 17:00:00 9.2 6 Sudoeste 25 Sudoeste 0.2 -- -- 67
2019-04-06 16:00:00 8.7 12 Oeste 36 Noroeste 0 -- -- 64
2019-04-06 15:00:00 9.5 18 Oeste 36 Oeste 0 -- -- 55
2019-04-06 14:00:00 8.4 18 Oeste 38 Oeste 0 -- -- 60
2019-04-06 13:00:00 9 18 Oeste 36 Oeste 0 -- -- 57
2019-04-06 12:00:00 7.6 16 Oeste 35 Oeste 0 -- -- 63
2019-04-06 11:00:00 7.2 12 Noroeste 32 Oeste 0 -- -- 67
2019-04-06 10:00:00 6.8 12 Norte 26 Noroeste 0 -- -- 70
2019-04-06 09:00:00 4.6 10 Noroeste 23 Noroeste 0 -- -- 78
2019-04-06 08:00:00 4.4 9 Noroeste 18 Noroeste 0 -- -- 81
2019-04-06 07:00:00 4.5 5 Noroeste 23 Noroeste 0 -- -- 81
2019-04-06 06:00:00 4.7 10 Norte 21 Norte 0 -- -- 78
2019-04-06 05:00:00 4.7 9 Norte 23 Noroeste 0 -- -- 79
2019-04-06 04:00:00 4.8 12 Norte 22 Norte 0 -- -- 80
2019-04-06 03:00:00 4.5 10 Noroeste 25 Noroeste 0 -- -- 79
2019-04-06 02:00:00 4.1 4 Norte 21 Noroeste 0 -- -- 80
2019-04-06 01:00:00 4.7 12 Norte 27 Noroeste 0 -- -- 77
2019-04-06 00:00:00 4.4 11 Norte 21 Norte 0 -- -- 75
2019-04-05 23:00:00 4.3 8 Norte 12 Norte 0 -- -- 82
2019-04-05 22:00:00 3.9 4 Nordeste 11 Nordeste 0 -- -- 88
2019-04-05 21:00:00 4.6 0 Calma 9 Oeste 0 -- -- 92
2019-04-05 20:00:00 5.1 4 Sur 11 Sudeste 0 -- -- 91
2019-04-05 19:00:00 5.6 5 Sudoeste 14 Sudoeste 0 -- -- 86
2019-04-05 18:00:00 5.4 5 Noroeste 32 Sudoeste 1.8 -- -- 78
2019-04-05 17:00:00 7.9 10 Oeste 22 Oeste 0 -- -- 66
2019-04-05 16:00:00 9 10 Noroeste 21 Noroeste 0 -- -- 74
2019-04-05 15:00:00 5.5 7 Norte 20 Norte 4.4 -- -- 88
2019-04-05 14:00:00 7.7 6 Noroeste 20 Sudeste 0 -- -- 70
2019-04-05 13:00:00 10.6 8 Sur 25 Sudeste 0 -- -- 59
2019-04-05 12:00:00 9.3 8 Sudeste 21 Este 0 -- -- 61
2019-04-05 11:00:00 8.2 6 Sudeste 14 Sudeste 0 -- -- 61
2019-04-05 10:00:00 7.9 5 Sur 11 Este 0 -- -- 61
2019-04-05 09:00:00 7.2 3 Este 17 Sudeste 0 -- -- 61
2019-04-05 08:00:00 6.5 6 Sudeste 18 Sudeste 0 -- -- 61
2019-04-05 07:00:00 6.6 6 Sudeste 16 Este 0 -- -- 67
2019-04-05 06:00:00 6 0 Calma 15 Sur 0 -- -- 64
2019-04-05 05:00:00 6.6 4 Sudeste 11 Sudeste 0 -- -- 60
2019-04-05 04:00:00 5.6 0 Calma 10 Norte 0 -- -- 69
2019-04-05 03:00:00 6 7 Norte 12 Norte 0 -- -- 68
2019-04-05 02:00:00 6.1 8 Norte 18 Norte 0 -- -- 67
2019-04-05 01:00:00 6.2 6 Norte 23 Norte 0 -- -- 67
2019-04-05 00:00:00 6.5 9 Noroeste 24 Noroeste 0 -- -- 66
2019-04-04 23:00:00 7.9 8 Noroeste 30 Noroeste 0 -- -- 52
2019-04-04 22:00:00 9.7 11 Oeste 32 Oeste 0 -- -- 39
2019-04-04 21:00:00 10.6 8 Oeste 26 Noroeste 0 -- -- 34
2019-04-04 20:00:00 11.4 6 Oeste 26 Oeste 0 -- -- 31
2019-04-04 19:00:00 12.3 10 Sudoeste 28 Oeste 0 -- -- 31
2019-04-04 18:00:00 13.4 13 Sudoeste 27 Sudoeste 0 -- -- 30
2019-04-04 17:00:00 13.7 9 Sudoeste 27 Norte 0 -- -- 32
2019-04-04 16:00:00 12.9 10 Sudoeste 37 Oeste 0 -- -- 33
2019-04-04 15:00:00 11.7 12 Noroeste 33 Oeste 0 -- -- 36
2019-04-04 14:00:00 10.8 15 Oeste 35 Noroeste 0 -- -- 39
2019-04-04 13:00:00 9.4 12 Oeste 35 Oeste 0 -- -- 45
2019-04-04 12:00:00 7.5 11 Noroeste 26 Oeste 0 -- -- 51
2019-04-04 11:00:00 5.9 7 Oeste 21 Oeste 0 -- -- 56
2019-04-04 10:00:00 3.5 9 Oeste 19 Noroeste 0 -- -- 62
2019-04-04 09:00:00 1.3 8 Norte 17 Norte 0 -- -- 68
2019-04-04 08:00:00 0.6 4 Norte 18 Norte 0 -- -- 71
2019-04-04 07:00:00 1 8 Norte 17 Oeste 0 -- -- 71
2019-04-04 06:00:00 1.8 4 Noroeste 12 Oeste 0 -- -- 72
2019-04-04 05:00:00 0.5 3 Norte 11 Norte 0 -- -- 75
2019-04-04 04:00:00 1.4 5 Noroeste 14 Noroeste 0 -- -- 73
2019-04-04 03:00:00 1.8 6 Norte 21 Noroeste 0 -- -- 71
2019-04-04 02:00:00 1.9 8 Norte 21 Norte 0 -- -- 74
2019-04-04 01:00:00 2.6 9 Noroeste 15 Norte 0 -- -- 70
2019-04-04 00:00:00 2.8 8 Noroeste 19 Noroeste 0 -- -- 69
2019-04-03 23:00:00 3.3 8 Noroeste 21 Noroeste 0 -- -- 66
2019-04-03 22:00:00 3.5 8 Noroeste 25 Oeste 0 -- -- 64
2019-04-03 21:00:00 4.2 14 Noroeste 42 Norte 0 -- -- 62
2019-04-03 20:00:00 5.3 22 Norte 42 Norte 0 -- -- 55
2019-04-03 19:00:00 6.4 31 Norte 52 Norte 0 -- -- 49
2019-04-03 18:00:00 7.9 23 Norte 41 Norte 0 -- -- 43
2019-04-03 17:00:00 8.6 18 Norte 43 Norte 0 -- -- 47
2019-04-03 16:00:00 7 13 Noroeste 55 Nordeste 0 -- -- 55
2019-04-03 15:00:00 9 21 Norte 42 Norte 0 -- -- 48
2019-04-03 14:00:00 9.8 14 Norte 44 Noroeste 0 -- -- 55
2019-04-03 13:00:00 7.7 26 Norte 49 Norte 0 -- -- 63
2019-04-03 12:00:00 6.4 14 Norte 30 Norte 0 -- -- 73
2019-04-03 11:00:00 7 15 Norte 30 Norte 0 -- -- 70
2019-04-03 10:00:00 5.7 11 Noroeste 27 Norte 0 -- -- 80
2019-04-03 09:00:00 5.7 11 Norte 20 Noroeste 0 -- -- 80
2019-04-03 08:00:00 6 8 Norte 18 Norte 0 -- -- 79
2019-04-03 07:00:00 6.1 7 Norte 27 Nordeste 0 -- -- 83
2019-04-03 06:00:00 6.2 13 Nordeste 24 Norte 0 -- -- 80
2019-04-03 05:00:00 6.9 4 Sur 27 Nordeste 0 -- -- 79
2019-04-03 04:00:00 7.1 11 Norte 29 Nordeste 0 -- -- 78
2019-04-03 03:00:00 7.2 18 Norte 44 Nordeste 0 -- -- 79
2019-04-03 02:00:00 7 27 Nordeste 40 Nordeste 0 -- -- 83
2019-04-03 01:00:00 7.6 20 Nordeste 40 Nordeste 0 -- -- 81
2019-04-03 00:00:00 8.1 26 Nordeste 42 Nordeste 0 -- -- 79
2019-04-02 23:00:00 8.7 21 Nordeste 42 Nordeste 0 -- -- 79
2019-04-02 22:00:00 9.3 27 Nordeste 54 Nordeste 0 -- -- 73
2019-04-02 21:00:00 9.3 31 Nordeste 63 Nordeste 0 -- -- 73
2019-04-02 20:00:00 10.1 34 Nordeste 56 Nordeste 0 -- -- 70
2019-04-02 19:00:00 13.5 25 Nordeste 39 Nordeste 0 -- -- 59
2019-04-02 18:00:00 15.8 16 Nordeste 31 Nordeste 0 -- -- 50
2019-04-02 17:00:00 16.5 5 Norte 21 Nordeste 0 -- -- 44
2019-04-02 16:00:00 16.2 9 Noroeste 27 Nordeste 0 -- -- 45
2019-04-02 15:00:00 15.1 14 Nordeste 27 Nordeste 0 -- -- 43
2019-04-02 14:00:00 14.8 6 Norte 26 Norte 0 -- -- 52
2019-04-02 13:00:00 12.9 12 Norte 25 Norte 0 -- -- 60
2019-04-02 12:00:00 13.2 10 Este 24 Norte 0 -- -- 55
2019-04-02 11:00:00 11 4 Noroeste 10 Noroeste 0 -- -- 74
2019-04-02 10:00:00 8.6 2 Sur 10 Noroeste 0 -- -- 86
2019-04-02 09:00:00 5.4 4 Noroeste 12 Noroeste 0 -- -- 95
2019-04-02 08:00:00 4.9 0 Calma 9 Nordeste 0 -- -- 95
2019-04-02 07:00:00 5.3 0 Calma 5 Nordeste 0 -- -- 95
2019-04-02 06:00:00 5.1 2 Norte 8 Este 0 -- -- 93
2019-04-02 05:00:00 5.5 0 Calma 6 Noroeste 0 -- -- 92
2019-04-02 04:00:00 6.6 2 Nordeste 6 Norte 0 -- -- 92
2019-04-02 03:00:00 5.8 3 Norte 5 Norte 0 -- -- 91
2019-04-02 02:00:00 6.4 2 Este 8 Norte 0 -- -- 89
2019-04-02 01:00:00 7.9 0 Calma 10 Nordeste 0 -- -- 86
2019-04-02 00:00:00 8.6 2 Nordeste 9 Este 0 -- -- 84
2019-04-01 23:00:00 9.7 5 Este 8 Este 0 -- -- 80
2019-04-01 22:00:00 9.8 5 Este 11 Este 0 -- -- 78
2019-04-01 21:00:00 10.6 3 Este 15 Sudeste 0 -- -- 78
2019-04-01 20:00:00 13.1 5 Sur 19 Sur 0 -- -- 69
2019-04-01 19:00:00 14.9 5 Sur 18 Sur 0 -- -- 61
2019-04-01 18:00:00 14.9 7 Sudeste 17 Sudeste 0 -- -- 64
2019-04-01 17:00:00 13 5 Sudeste 17 Sur 0 -- -- 68
2019-04-01 16:00:00 12.8 6 Sur 17 Sur 0 -- -- 70
2019-04-01 15:00:00 11.9 5 Sudeste 16 Sur 0 -- -- 73
2019-04-01 14:00:00 11.7 8 Sudeste 19 Sur 0 -- -- 75
2019-04-01 13:00:00 11.4 9 Sudeste 24 Sur 0 -- -- 75
2019-04-01 12:00:00 11.2 7 Sur 18 Sudoeste 0 -- -- 80
2019-04-01 11:00:00 8.9 6 Sur 17 Sur 0 -- -- 88
2019-04-01 10:00:00 8.2 5 Sur 16 Sur 0 -- -- 89
2019-04-01 09:00:00 7.5 8 Sur 18 Sur 0 -- -- 90
2019-04-01 08:00:00 6.7 4 Norte 12 Oeste 0 -- -- 92
2019-04-01 07:00:00 7.3 6 Noroeste 22 Sudeste 0 -- -- 86
2019-04-01 06:00:00 7.8 7 Sudeste 21 Sudeste 0 -- -- 84
2019-04-01 05:00:00 8.2 9 Sudeste 21 Sudeste 0 -- -- 78
2019-04-01 04:00:00 8.4 9 Sudeste 24 Este 0 -- -- 76
2019-04-01 03:00:00 7.9 8 Este 24 Este 0.2 -- -- 78
2019-04-01 02:00:00 7.5 9 Este 27 Este 1 -- -- 83
2019-04-01 01:00:00 8.2 12 Sudeste 41 Sudeste 0 -- -- 77
2019-04-01 00:00:00 9.7 16 Sudeste 40 Sudeste 0 -- -- 62
2019-03-31 23:00:00 10.6 8 Sudeste 28 Sudeste 0 -- -- 58
2019-03-31 22:00:00 11.8 9 Sudeste 25 Sudeste 0 -- -- 49
2019-03-31 21:00:00 12.5 9 Sudeste 29 Sudeste 0 -- -- 36
2019-03-31 20:00:00 13.4 12 Sudeste 26 Sudeste 0 -- -- 26
2019-03-31 19:00:00 13.8 13 Sudeste 32 Sudeste 0 -- -- 53
2019-03-31 18:00:00 15.7 14 Sudeste 31 Sur 0 -- -- 46
2019-03-31 17:00:00 16.4 13 Sudeste 32 Sur 0 -- -- 42
2019-03-31 16:00:00 17.4 15 Sudeste 33 Sur 0 -- -- 36
2019-03-31 15:00:00 16.4 14 Sudeste 31 Sudeste 0 -- -- 40
2019-03-31 14:00:00 16 14 Sudeste 35 Sur 0 -- -- 36
2019-03-31 13:00:00 15.7 15 Sur 29 Sur 0 -- -- 45
2019-03-31 12:00:00 14 11 Sur 25 Sudeste 0 -- -- 53
2019-03-31 11:00:00 9.7 5 Sudoeste 10 Sudoeste 0 -- -- 68
2019-03-31 10:00:00 7.6 2 Noroeste 10 Noroeste 0 -- -- 71
2019-03-31 09:00:00 5.3 6 Norte 10 Noroeste 0 -- -- 77
2019-03-31 08:00:00 4.3 5 Norte 10 Noroeste 0 -- -- 75
2019-03-31 07:00:00 7 6 Noroeste 12 Oeste 0 -- -- 67
2019-03-31 06:00:00 7.7 3 Norte 12 Sudeste 0 -- -- 62
2019-03-31 05:00:00 10.4 6 Sudeste 21 Este 0 -- -- 50
2019-03-31 03:00:00 9.8 4 Oeste 20 Este 0 -- -- 48
2019-03-31 01:00:00 11.7 8 Sudeste 26 Este 0 -- -- 43
2019-03-31 00:00:00 13 6 Este 23 Sudeste 0 -- -- 35
2019-03-30 23:00:00 13.1 8 Este 22 Sudeste 0 -- -- 37
2019-03-30 22:00:00 13.4 9 Este 23 Sudeste 0 -- -- 36
2019-03-30 21:00:00 13.6 6 Este 26 Sudeste 0 -- -- 35
2019-03-30 20:00:00 13.7 10 Este 23 Sudeste 0 -- -- 38
2019-03-30 19:00:00 15.1 10 Sudeste 29 Sudeste 0 -- -- 37
2019-03-30 18:00:00 17 13 Sudeste 31 Sudeste 0 -- -- 35
2019-03-30 17:00:00 18.4 11 Sudeste 32 Sur 0 -- -- 35
2019-03-30 16:00:00 18.8 14 Sur 28 Sur 0 -- -- 35
2019-03-30 15:00:00 17.8 15 Sudeste 34 Sur 0 -- -- 39
2019-03-30 14:00:00 16.8 16 Sudeste 36 Sur 0 -- -- 42
2019-03-30 13:00:00 16.1 15 Sudeste 34 Sur 0 -- -- 45
2019-03-30 12:00:00 14.3 14 Sudeste 33 Sur 0 -- -- 50
2019-03-30 11:00:00 12.3 16 Sur 33 Sudeste 0 -- -- 57
2019-03-30 10:00:00 10.8 15 Sur 30 Sur 0 -- -- 58
2019-03-30 09:00:00 9.1 6 Noroeste 12 Oeste 0 -- -- 60
2019-03-30 08:00:00 6.8 7 Noroeste 12 Noroeste 0 -- -- 65
2019-03-30 07:00:00 5.6 8 Norte 13 Norte 0 -- -- 66
2019-03-30 06:00:00 6.9 8 Noroeste 21 Sur 0 -- -- 65
2019-03-30 05:00:00 8.9 7 Sudeste 36 Sudeste 0 -- -- 54
2019-03-30 04:00:00 9 15 Sudeste 39 Sudeste 0 -- -- 55
2019-03-30 03:00:00 9.8 15 Sudeste 34 Sudeste 0 -- -- 53
2019-03-30 02:00:00 10.9 13 Sudeste 32 Este 0 -- -- 48
2019-03-30 01:00:00 11.7 15 Sudeste 39 Este 0 -- -- 47
2019-03-30 00:00:00 12.1 15 Sudeste 42 Sur 0 -- -- 48
2019-03-29 23:00:00 12.5 16 Sudeste 47 Sudeste 0 -- -- 48
2019-03-29 22:00:00 13.3 16 Sudeste 43 Este 0 -- -- 42
2019-03-29 21:00:00 14.2 21 Sudeste 46 Sudeste 0 -- -- 36
2019-03-29 20:00:00 14.7 16 Sudeste 42 Este 0 -- -- 34
2019-03-29 19:00:00 15.5 17 Sudeste 37 Sudeste 0 -- -- 34
2019-03-29 18:00:00 17.5 18 Sudeste 41 Sudeste 0 -- -- 32
2019-03-29 17:00:00 18.5 16 Sudeste 34 Sudeste 0 -- -- 33
2019-03-29 16:00:00 18.8 14 Sudeste 32 Sur 0 -- -- 34
2019-03-29 15:00:00 18.6 14 Sudeste 32 Sur 0 -- -- 35
2019-03-29 14:00:00 17.5 15 Sudeste 32 Sudeste 0 -- -- 39
2019-03-29 13:00:00 15.8 14 Sudeste 31 Sur 0 -- -- 42
2019-03-29 12:00:00 14.6 15 Sudeste 39 Sudeste 0 -- -- 45
2019-03-29 11:00:00 13.1 13 Sur 29 Sur 0 -- -- 51
2019-03-29 10:00:00 7.8 5 Sur 12 Sudoeste 0 -- -- 69
2019-03-29 09:00:00 5.9 4 Sudoeste 12 Sur 0 -- -- 75
2019-03-29 08:00:00 3.1 0 Calma 3 Sudeste 0 -- -- 86
2019-03-29 07:00:00 1.4 0 Calma 5 Sur 0 -- -- 88
2019-03-29 06:00:00 1.1 3 Nordeste 5 Nordeste 0 -- -- 87
2019-03-29 05:00:00 1.7 2 Nordeste 5 Nordeste 0 -- -- 84
2019-03-29 04:00:00 2.4 3 Nordeste 6 Sur 0 -- -- 81
2019-03-29 03:00:00 3 4 Nordeste 9 Norte 0 -- -- 77
2019-03-29 02:00:00 4 4 Nordeste 10 Norte 0 -- -- 74
2019-03-29 01:00:00 5.7 2 Nordeste 12 Noroeste 0 -- -- 69
2019-03-29 00:00:00 6.7 6 Sudoeste 11 Sudoeste 0 -- -- 64
2019-03-28 23:00:00 7.3 4 Noroeste 10 Sudeste 0 -- -- 61
2019-03-28 22:00:00 8.6 6 Norte 36 Nordeste 0 -- -- 59
2019-03-28 21:00:00 10 15 Nordeste 43 Nordeste 0 -- -- 52
2019-03-28 20:00:00 10.5 23 Nordeste 45 Nordeste 0 -- -- 58
2019-03-28 19:00:00 12.6 23 Nordeste 40 Nordeste 0 -- -- 53
2019-03-28 18:00:00 14.3 12 Nordeste 33 Nordeste 0 -- -- 51
2019-03-28 17:00:00 16.1 7 Noroeste 31 Nordeste 0 -- -- 44
2019-03-28 16:00:00 16.2 8 Este 26 Nordeste 0 -- -- 44
2019-03-28 15:00:00 16.3 8 Sudeste 29 Nordeste 0 -- -- 41
2019-03-28 14:00:00 14.3 14 Nordeste 31 Nordeste 0 -- -- 46
2019-03-28 13:00:00 14.7 5 Norte 22 Sudeste 0 -- -- 47
2019-03-28 12:00:00 13 11 Nordeste 21 Sudeste 0 -- -- 49
2019-03-28 11:00:00 11.4 6 Sudoeste 19 Sudoeste 0 -- -- 57
2019-03-28 10:00:00 9.6 8 Sudoeste 17 Sudoeste 0 -- -- 64
2019-03-28 09:00:00 7.3 7 Oeste 14 Sudoeste 0 -- -- 74
2019-03-28 08:00:00 4.3 4 Norte 7 Nordeste 0 -- -- 85
2019-03-28 07:00:00 3.3 3 Noroeste 6 Oeste 0 -- -- 86
2019-03-28 06:00:00 4 3 Sudoeste 12 Norte 0 -- -- 81
2019-03-28 05:00:00 4.3 5 Norte 9 Nordeste 0 -- -- 81
2019-03-28 04:00:00 3.5 3 Nordeste 11 Sudeste 0 -- -- 80
2019-03-28 03:00:00 4.9 6 Norte 13 Norte 0 -- -- 78
2019-03-28 02:00:00 4.5 9 Norte 14 Norte 0 -- -- 77
2019-03-28 01:00:00 4.6 9 Norte 31 Nordeste 0 -- -- 77
2019-03-28 00:00:00 5.6 20 Nordeste 37 Este 0 -- -- 74
2019-03-27 23:00:00 5.4 16 Nordeste 27 Este 0 -- -- 71
2019-03-27 22:00:00 5.6 8 Oeste 23 Noroeste 0 -- -- 66
2019-03-27 21:00:00 7.2 6 Nordeste 37 Norte 0 -- -- 49
2019-03-27 20:00:00 8.3 18 Nordeste 36 Nordeste 0 -- -- 47
2019-03-27 19:00:00 10.6 12 Norte 49 Norte 0 -- -- 41
2019-03-27 18:00:00 13 15 Norte 30 Noroeste 0 -- -- 37
2019-03-27 17:00:00 14.3 15 Noroeste 36 Nordeste 0 -- -- 35
2019-03-27 16:00:00 14.9 15 Nordeste 43 Norte 0 -- -- 36
2019-03-27 15:00:00 14.8 11 Nordeste 39 Nordeste 0 -- -- 34
2019-03-27 14:00:00 15.3 13 Este 33 Este 0 -- -- 35
2019-03-27 13:00:00 13.9 14 Nordeste 34 Norte 0 -- -- 35
2019-03-27 12:00:00 12.4 17 Nordeste 37 Nordeste 0 -- -- 38
2019-03-27 11:00:00 12.2 6 Nordeste 21 Nordeste 0 -- -- 41
2019-03-27 10:00:00 10 6 Sur 17 Sudoeste 0 -- -- 52
2019-03-27 09:00:00 7.8 4 Noroeste 10 Noroeste 0 -- -- 60
2019-03-27 08:00:00 4.3 8 Norte 15 Noroeste 0 -- -- 69
2019-03-27 07:00:00 1.3 5 Nordeste 9 Noroeste 0 -- -- 80
2019-03-27 06:00:00 1.3 3 Nordeste 9 Nordeste 0 -- -- 84
2019-03-27 05:00:00 2 3 Sudoeste 9 Norte 0 -- -- 83
2019-03-27 04:00:00 1.7 3 Norte 9 Nordeste 0 -- -- 84
2019-03-27 03:00:00 2 3 Sur 10 Sudoeste 0 -- -- 85
2019-03-27 02:00:00 3.2 5 Norte 17 Noroeste 0 -- -- 84
2019-03-27 01:00:00 4.1 9 Norte 20 Noroeste 0 -- -- 80
2019-03-27 00:00:00 4.8 5 Este 18 Noroeste 0 -- -- 74
2019-03-26 23:00:00 5.4 4 Oeste 32 Nordeste 0 -- -- 70
2019-03-26 22:00:00 6.3 15 Nordeste 40 Nordeste 0 -- -- 63
2019-03-26 21:00:00 7.5 12 Nordeste 41 Este 0 -- -- 49
2019-03-26 20:00:00 8.1 27 Nordeste 56 Nordeste 0 -- -- 47
2019-03-26 19:00:00 10.3 26 Nordeste 47 Nordeste 0 -- -- 33
2019-03-26 18:00:00 12.3 23 Nordeste 47 Nordeste 0 -- -- 29
2019-03-26 17:00:00 13.5 23 Nordeste 44 Nordeste 0 -- -- 28
2019-03-26 16:00:00 15.1 13 Norte 37 Nordeste 0 -- -- 26
2019-03-26 15:00:00 15.6 13 Nordeste 38 Nordeste 0 -- -- 24
2019-03-26 14:00:00 15.4 16 Nordeste 36 Nordeste 0 -- -- 22
2019-03-26 13:00:00 14.6 9 Noroeste 24 Noroeste 0 -- -- 30
2019-03-26 12:00:00 12.3 10 Noroeste 23 Oeste 0 -- -- 35
2019-03-26 11:00:00 11.3 6 Sudeste 24 Sudeste 0 -- -- 39
2019-03-26 10:00:00 8.8 7 Sur 18 Sudoeste 0 -- -- 51
2019-03-26 09:00:00 5.9 8 Sudoeste 19 Oeste 0 -- -- 62
2019-03-26 08:00:00 4 5 Sudoeste 14 Este 0 -- -- 73
2019-03-26 07:00:00 2.4 5 Nordeste 15 Oeste 0 -- -- 77
2019-03-26 06:00:00 4.4 6 Sudoeste 19 Sudoeste 0 -- -- 71
2019-03-26 05:00:00 4.9 5 Noroeste 23 Noroeste 0 -- -- 74
2019-03-26 04:00:00 5.1 11 Oeste 21 Este 0 -- -- 79
2019-03-26 03:00:00 4.8 10 Oeste 19 Oeste 0 -- -- 82
2019-03-26 02:00:00 4.7 8 Noroeste 17 Noroeste 0 -- -- 81
2019-03-26 01:00:00 4.8 11 Noroeste 18 Noroeste 0 -- -- 81
2019-03-26 00:00:00 5.5 8 Norte 19 Noroeste 0 -- -- 72
2019-03-25 23:00:00 5.4 13 Nordeste 36 Nordeste 0 -- -- 68
2019-03-25 22:00:00 5.8 17 Nordeste 57 Nordeste 0 -- -- 65
2019-03-25 21:00:00 6.1 23 Nordeste 59 Nordeste 0 -- -- 62
2019-03-25 20:00:00 7.1 18 Nordeste 36 Nordeste 0 -- -- 64
2019-03-25 19:00:00 8.7 12 Norte 31 Norte 0 -- -- 59
2019-03-25 18:00:00 10.1 10 Norte 42 Norte 0 -- -- 57
2019-03-25 17:00:00 11.3 12 Norte 33 Norte 0 -- -- 53
2019-03-25 16:00:00 13 9 Norte 34 Norte 0 -- -- 42
2019-03-25 15:00:00 12.5 13 Norte 31 Nordeste 0 -- -- 46
2019-03-25 14:00:00 11.2 11 Norte 29 Norte 0 -- -- 50
2019-03-25 13:00:00 10.7 9 Noroeste 32 Norte 0 -- -- 54
2019-03-25 12:00:00 9.6 10 Noroeste 31 Noroeste 0 -- -- 60
2019-03-25 11:00:00 9.3 10 Noroeste 29 Noroeste 0 -- -- 61
2019-03-25 10:00:00 9 10 Noroeste 26 Norte 0 -- -- 65
2019-03-25 09:00:00 8.3 9 Noroeste 19 Noroeste 0 -- -- 78
2019-03-25 08:00:00 7.6 8 Oeste 23 Noroeste 0 -- -- 81
2019-03-25 07:00:00 8 9 Noroeste 28 Noroeste 0 -- -- 77
2019-03-25 06:00:00 8 11 Norte 27 Norte 0 -- -- 79
2019-03-25 05:00:00 8 6 Oeste 30 Oeste 0 -- -- 75
2019-03-25 04:00:00 5.8 4 Noroeste 13 Oeste 0 -- -- 86
2019-03-25 03:00:00 6.9 6 Sur 15 Noroeste 0 -- -- 81
2019-03-25 02:00:00 6.9 5 Sudeste 12 Sudoeste 0 -- -- 71
2019-03-25 01:00:00 6.7 2 Nordeste 11 Oeste 0 -- -- 66
2019-03-25 00:00:00 9.4 6 Sudoeste 22 Sudeste 0 -- -- 57